Anza Borrego Desert Research Center, California Weather observations

Data are for 10 minute period ending at time listed.
 Day   Time   Solar   Ave.   Ave.  Ave.  Vector  Max.   Baro.   Total    
  of    of     Rad.   Air    Rel.  Wind   Wind   Wind  Press.  Precip.   
Year   Day            Temp.  Hum.  Speed  Dir.   Gust                    
2016   (PST)  Kw/m2    F      %     mph   deg.    mph    mb.     in.     
-------------------------------------------------------------------------
 146    0:00   0.00   59.1    50    3.9   325     5.0   982.4    0.00 
 146    0:10   0.00   57.1    52    0.7   123     2.1   982.3    0.00 
 146    0:20   0.00   57.0    52    2.2   199     3.8   982.3    0.00 
 146    0:30   0.00   56.8    53    3.8   210     6.6   982.2    0.00 
 146    0:40   0.00   57.1    52    5.8   196     7.7   982.2    0.00 
 146    0:50   0.00   58.0    51    6.1   176     8.2   982.2    0.00 
 146    1:00   0.00   58.3    51    4.7   208     7.6   982.2    0.00 
 146    1:10   0.00   57.5    52    4.3   244     6.7   982.4    0.00 
 146    1:20   0.00   58.2    51    3.2   239     4.9   982.4    0.00 
 146    1:30   0.00   57.8    52    3.7   236     5.0   982.4    0.00 
 146    1:40   0.00   57.5    52    3.1   239     5.3   982.4    0.00 
 146    1:50   0.00   55.4    54    3.6   247     5.4   982.3    0.00 
 146    2:00   0.00   54.1    56    1.9   272     3.4   982.1    0.00 
 146    2:10   0.00   54.1    56    2.7   312     4.5   982.1    0.00 
 146    2:20   0.00   54.2    56    4.0   343     5.2   982.1    0.00 
 146    2:30   0.00   55.9    54    2.0   309     3.4   982.1    0.00 
 146    2:40   0.00   54.1    56    2.5   215     3.6   982.1    0.00 
 146    2:50   0.00   54.2    57    2.5   244     3.9   982.2    0.00 
 146    3:00   0.00   53.2    58    3.7   244     6.6   982.3    0.00 
 146    3:10   0.00   52.8    59    4.2   225     6.0   982.4    0.00 
 146    3:20   0.00   53.7    58    4.6   197     5.8   982.3    0.00 
 146    3:30   0.00   53.5    58    1.9   214     4.1   982.3    0.00 
 146    3:40   0.00   52.6    59    2.9   268     4.3   982.3    0.00 
 146    3:50   0.00   53.0    58    2.9   251     4.5   982.2    0.00 
 146    4:00   0.00   53.1    58    5.0   241     6.9   982.2    0.00 
 146    4:10   0.00   53.5    58    3.4   223     5.3   982.1    0.00 
 146    4:20   0.00   52.7    58    5.3   222     7.0   982.1    0.00 
 146    4:30   0.00   52.8    59    6.7   236     7.7   982.2    0.00 
 146    4:40   0.00   53.9    56    5.2   232     6.6   982.3    0.00 
 146    4:50   0.00   53.5    56    5.4   262     6.9   982.4    0.00 
 146    5:00   0.01   55.0    55    3.5   282     4.6   982.5    0.00 
 146    5:10   0.03   55.2    54    3.8   242     5.0   982.6    0.00 
 146    5:20   0.06   56.1    52    3.9   238     5.6   982.7    0.00 
 146    5:30   0.08   57.5    50    4.4   221     5.5   982.7    0.00 
 146    5:40   0.11   60.5    46    2.5   193     4.0   982.8    0.00 
 146    5:50   0.14   63.9    42    1.1   123     2.3   983.0    0.00 
 146    6:00   0.17   65.1    40    1.2    76     2.5   983.3    0.00 
 146    6:10   0.21   65.2    39    2.4    35     3.7   983.5    0.00 
 146    6:20   0.24   64.7    40    2.9   336     4.5   983.8    0.00 
 146    6:30   0.28   65.6    39    0.8   273     2.9   983.9    0.00 
 146    6:40   0.32   67.1    36    2.2   151     4.1   984.0    0.00 
 146    6:50   0.35   67.1    36    3.6   164     6.9   984.1    0.00 
 146    7:00   0.38   66.4    36    4.7   161     7.3   984.2    0.00 
 146    7:10   0.42   66.3    36    5.9   154     9.3   984.2    0.00 
 146    7:20   0.46   66.8    35    4.9   146     9.7   984.2    0.00 
 146    7:30   0.49   67.2    34    5.7   134     9.4   984.2    0.00 
 146    7:40   0.53   68.4    32    3.6   147     7.5   984.3    0.00 
 146    7:50   0.56   68.8    31    3.9   176     6.9   984.3    0.00 
 146    8:00   0.60   69.3    30    2.8   135     7.7   984.4    0.00 
 146    8:10   0.63   70.1    29    4.8   142     8.7   984.4    0.00 
 146    8:20   0.67   70.0    28    6.7   126    10.7   984.4    0.00 
 146    8:30   0.70   70.3    27    8.4   136    12.4   984.4    0.00 
 146    8:40   0.72   70.5    28    6.3   132    11.5   984.3    0.00 
 146    8:50   0.75   71.4    27    4.2   102     8.7   984.3    0.00 
 146    9:00   0.78   72.5    26    5.5   103     9.1   984.2    0.00 
 146    9:10   0.81   71.8    26    5.2    93    11.3   984.2    0.00 
 146    9:20   0.84   72.9    25    4.5   106     8.6   984.1    0.00 
 146    9:30   0.86   74.0    24    3.2   104     7.9   984.1    0.00 
 146    9:40   0.88   73.8    24    6.2   126    10.9   984.1    0.00 
 146    9:50   0.90   73.8    24    4.0   181     9.8   984.1    0.00 
 146   10:00   0.92   75.1    23    6.5   153    11.0   984.1    0.00 
 146   10:10   0.93   75.9    23    2.5   173     8.6   984.0    0.00 
 146   10:20   0.95   75.4    23    3.7   143     8.4   983.9    0.00 
 146   10:30   0.96   76.0    23    5.0   327    19.1   983.8    0.00 
 146   10:40   0.97   75.7    23   10.6   321    20.1   983.7    0.00 
 146   10:50   0.98   75.4    23   12.4   334    19.1   983.7    0.00 
 146   11:00   0.99   75.9    23   13.0   330    20.7   983.6    0.00 
 146   11:10   0.99   76.0    23   12.8   337    20.8   983.6    0.00 
 146   11:20   0.99   76.9    22   14.0   339    20.5   983.6    0.00 
 146   11:30   0.99   75.8    24   12.5   340    21.1   983.5    0.00 
 146   11:40   1.00   77.1    23    9.9   307    15.9   983.4    0.00 
 146   11:50   1.00   76.8    23   13.5   331    21.5   983.4    0.00 
 146   12:00   1.00   77.2    23   11.6   315    23.0   983.4    0.00 
 146   12:10   0.99   76.7    24   12.9   327    25.0   983.4    0.00 
 146   12:20   0.99   76.0    25   15.9   313    23.9   983.4    0.00 
 146   12:30   0.96   76.8    25   14.4   298    26.2   983.4    0.00 
 146   12:40   0.98   76.7    26   18.4   287    27.7   983.4    0.00 
 146   12:50   0.98   76.0    26   16.9   276    28.7   983.4    0.00 
 146   13:00   0.96   75.6    27   20.3   281    28.2   983.3    0.00 
 146   13:10   0.95   75.4    27   22.1   274    32.9   983.3    0.00 
 146   13:20   0.94   74.2    29   21.2   269    33.3   983.3    0.00 
 146   13:30   0.92   75.4    28   18.7   269    27.8   983.4    0.00 
 146   13:40   0.91   74.9    28   21.1   273    32.6   983.2    0.00 
 146   13:50   0.89   74.3    29   21.1   263    29.8   983.2    0.00 
 146   14:00   0.87   75.3    27   18.3   265    27.1   983.0    0.00 
 146   14:10   0.85   75.2    27   19.7   265    31.7   982.9    0.00 
 146   14:20   0.82   75.8    26   18.3   266    25.3   982.9    0.00 
 146   14:30   0.80   75.0    27   18.7   262    30.7   982.9    0.00 
 146   14:40   0.77   74.6    28   20.9   264    29.3   982.9    0.00 
 146   14:50   0.74   74.6    28   16.3   264    27.0   982.8    0.00 
 146   15:00   0.71   74.9    27   16.4   266    28.8   982.7    0.00 
 146   15:10   0.68   75.3    26   15.7   273    30.2   982.8    0.00 
 146   15:20   0.65   73.7    29   23.0   266    36.8   982.8    0.00 
 146   15:30   0.62   73.8    28   18.0   272    27.0   982.7    0.00 
 146   15:40   0.59   74.1    28   14.1   275    29.4   982.6    0.00 
 146   15:50   0.55   75.1    27   11.3   299    19.6   982.5    0.00 
 146   16:00   0.52   75.6    26    8.0   298    18.8   982.5    0.00 
 146   16:10   0.48   74.7    28   12.6   324    27.7   982.3    0.00 
 146   16:20   0.45   73.7    29   14.4   304    23.4   982.3    0.00 
 146   16:30   0.42   73.5    29   15.7   300    29.4   982.4    0.00 
 146   16:40   0.38   72.8    30   12.9   286    23.1   982.4    0.00 
 146   16:50   0.35   72.7    29   13.8   296    23.4   982.3    0.00 
 146   17:00   0.31   72.7    28   15.4   296    27.5   982.3    0.00 
 146   17:10   0.28   71.7    30   19.1   287    29.0   982.4    0.00 
 146   17:20   0.24   70.5    33   20.8   294    33.8   982.5    0.00 
 146   17:30   0.17   70.1    33   19.9   290    31.0   982.6    0.00 
 146   17:40   0.03   68.4    36   22.1   287    32.9   982.5    0.00 
 146   17:50   0.03   67.8    37   27.4   284    37.7   982.4    0.00 
 146   18:00   0.03   67.3    38   29.2   283    44.2   982.2    0.00 
 146   18:10   0.02   68.6    34   21.4   289    33.8   982.3    0.00 
 146   18:20   0.01   69.6    31   17.2   295    29.2   982.3    0.00 
 146   18:30   0.01   69.9    30   14.9   298    29.5   982.4    0.00 
 146   18:40   0.00   70.0    30   13.7   306    25.6   982.5    0.00 
 146   18:50   0.00   69.2    32   13.1   320    25.9   982.7    0.00 
 146   19:00   0.00   68.6    33   14.3   325    26.2   982.8    0.00 
 146   19:10   0.00   66.8    37   15.9   333    27.5   983.1    0.00 
 146   19:20   0.00   67.0    36   10.8   328    24.2   983.3    0.00 
 146   19:30   0.00   67.9    34   10.6   295    23.1   983.4    0.00 
 146   19:40   0.00   67.9    34    9.0   253    17.2   983.5    0.00 
 146   19:50   0.00   67.4    35    8.2   168    13.2   983.6    0.00 
 146   20:00   0.00   67.2    35    6.8   141    13.2   983.6    0.00 
 146   20:10   0.00   67.2    36    7.3   135    11.8   983.6    0.00 
 146   20:20   0.00   66.6    37    7.1   122    12.2   983.7    0.00 
 146   20:30   0.00   65.8    38    9.8   128    13.7   983.7    0.00 
 146   20:40   0.00   66.0    38    5.1    73    11.1   983.8    0.00 
 146   20:50   0.00   66.4    38    4.6   105     9.9   983.9    0.00 
 146   21:00   0.00   66.1    38    7.6   105    12.6   983.9    0.00 
 146   21:10   0.00   65.3    39    5.7   142    10.7   984.1    0.00 
 146   21:20   0.00   64.9    40    4.6    69     7.9   984.1    0.00 
 146   21:30   0.00   64.7    40    5.0    83     9.6   984.1    0.00 
 146   21:40   0.00   64.8    40    2.8    70     7.7   984.1    0.00 
 146   21:50   0.00   63.9    41    2.8   351     4.5   984.1    0.00 
 146   22:00   0.00   63.5    42    0.7   282     2.0   983.9    0.00 
 146   22:10   0.00   63.5    42    2.9   111     4.7   983.8    0.00 
 146   22:20   0.00   62.5    43    4.8   180     7.5   983.8    0.00 
 146   22:30   0.00   61.4    44    6.6   192     8.6   983.6    0.00 
 146   22:40   0.00   62.2    44    8.1   163    11.2   983.5    0.00 
 146   22:50   0.00   62.9    43    6.8   153    10.4   983.5    0.00 
 146   23:00   0.00   63.4    43    5.0   136     8.4   983.4    0.00 
 146   23:10   0.00   62.1    44    4.3   242     5.6   983.3    0.00 
 146   23:20   0.00   61.3    45    2.0   296     3.9   983.3    0.00 
 146   23:30   0.00   61.0    45    2.2   152     5.6   983.2    0.00 

Return to Anza Borrego Desert Research Center graphs page.


Western Regional Climate Center,wrcc@dri.edu